createdAt,value
2022-08-28T00:00:46.318Z,49.62
2022-08-28T00:03:17.822Z,49.96
2022-08-28T00:05:48.615Z,49.86
2022-08-28T00:08:19.465Z,50.01
2022-08-28T00:10:50.163Z,49.99
2022-08-28T00:13:23.912Z,49.52
2022-08-28T00:15:59.618Z,49.08
2022-08-28T00:18:32.603Z,49.79
2022-08-28T00:21:03.429Z,49.47
2022-08-28T00:23:36.936Z,49.62
2022-08-28T00:26:33.666Z,49.79
2022-08-28T00:29:05.203Z,49.67
2022-08-28T00:31:39.870Z,49.84
2022-08-28T00:34:11.336Z,49.99
2022-08-28T00:36:42.761Z,49.53
2022-08-28T00:39:13.243Z,49.02
2022-08-28T00:41:46.989Z,49.06
2022-08-28T00:44:23.461Z,48.90
2022-08-28T00:46:56.030Z,48.41
2022-08-28T00:49:39.468Z,48.54
2022-08-28T00:52:12.974Z,48.47
2022-08-28T00:54:59.125Z,47.90
2022-08-28T00:57:35.741Z,47.68
2022-08-28T01:00:11.283Z,47.72
2022-08-28T01:02:42.584Z,48.36
2022-08-28T01:05:13.097Z,48.35
2022-08-28T01:07:44.407Z,48.62
2022-08-28T01:10:20.228Z,48.36
2022-08-28T01:12:51.552Z,48.48
2022-08-28T01:15:25.796Z,48.92
2022-08-28T01:18:02.577Z,49.32
2022-08-28T01:20:37.765Z,48.02
2022-08-28T01:23:15.441Z,48.00
2022-08-28T01:25:46.018Z,48.26
2022-08-28T01:28:17.975Z,47.91
2022-08-28T01:30:51.031Z,47.38
2022-08-28T01:33:24.304Z,48.38
2022-08-28T01:36:00.528Z,48.00
2022-08-28T01:38:30.799Z,47.42
2022-08-28T01:41:00.870Z,48.00
2022-08-28T01:43:32.670Z,47.00
2022-08-28T01:46:06.166Z,47.16
2022-08-28T01:48:39.266Z,47.28
2022-08-28T01:51:10.777Z,47.62
2022-08-28T01:53:45.041Z,47.40
2022-08-28T01:56:19.025Z,46.87
2022-08-28T01:58:49.766Z,47.40
2022-08-28T02:01:23.492Z,46.78
2022-08-28T02:03:57.059Z,46.96
2022-08-28T02:06:27.493Z,46.87
2022-08-28T02:08:57.613Z,47.66
2022-08-28T02:11:30.563Z,46.32
2022-08-28T02:14:01.983Z,46.43
2022-08-28T02:16:32.214Z,46.81
2022-08-28T02:19:04.279Z,46.21
2022-08-28T02:21:34.776Z,46.98
2022-08-28T02:24:06.245Z,46.82
2022-08-28T02:26:36.868Z,46.59
2022-08-28T02:29:07.831Z,46.25
2022-08-28T02:31:38.471Z,46.34
2022-08-28T02:34:08.661Z,46.66
2022-08-28T02:36:43.287Z,46.17
2022-08-28T02:39:14.026Z,46.27
2022-08-28T02:41:44.466Z,47.02
2022-08-28T02:44:14.525Z,46.36
2022-08-28T02:46:44.831Z,47.42
2022-08-28T02:49:14.817Z,46.30
2022-08-28T02:51:44.763Z,46.66
2022-08-28T02:54:14.766Z,46.93
2022-08-28T02:56:48.705Z,46.87
2022-08-28T02:59:18.773Z,46.35
2022-08-28T03:01:49.856Z,46.94
2022-08-28T03:04:20.924Z,46.82
2022-08-28T03:06:51.799Z,46.71
2022-08-28T03:09:21.759Z,46.38
2022-08-28T03:11:53.160Z,46.96
2022-08-28T03:14:25.259Z,46.63
2022-08-28T03:16:55.758Z,46.60
2022-08-28T03:19:25.951Z,46.36
2022-08-28T03:21:57.860Z,46.72
2022-08-28T03:24:27.924Z,47.17
2022-08-28T03:26:58.091Z,46.56
2022-08-28T03:29:27.482Z,45.92
2022-08-28T03:31:57.431Z,46.97
2022-08-28T03:34:27.439Z,47.08
2022-08-28T03:36:57.578Z,47.00
2022-08-28T03:39:28.441Z,46.54
2022-08-28T03:41:58.507Z,47.65
2022-08-28T03:44:28.539Z,46.79
2022-08-28T03:46:58.452Z,47.20
2022-08-28T03:49:28.770Z,46.87
2022-08-28T03:51:59.284Z,46.21
2022-08-28T03:54:32.541Z,46.34
2022-08-28T03:57:02.491Z,47.41
2022-08-28T03:59:33.677Z,46.87
2022-08-28T04:02:03.700Z,47.69
2022-08-28T04:04:33.981Z,47.26
2022-08-28T04:07:04.682Z,47.18
2022-08-28T04:09:34.764Z,47.36
2022-08-28T04:12:05.033Z,47.24
2022-08-28T04:14:35.243Z,46.92
2022-08-28T04:17:06.824Z,47.30
2022-08-28T04:19:37.440Z,47.63
2022-08-28T04:22:07.509Z,46.93
2022-08-28T04:24:37.504Z,46.77
2022-08-28T04:27:07.527Z,46.86
2022-08-28T04:29:37.528Z,47.10
2022-08-28T04:32:07.590Z,47.26
2022-08-28T04:34:39.855Z,46.61
2022-08-28T04:37:10.337Z,47.20
2022-08-28T04:39:40.391Z,47.41
2022-08-28T04:42:10.332Z,47.60
2022-08-28T04:44:40.132Z,46.34
2022-08-28T04:47:10.398Z,47.13
2022-08-28T04:49:42.195Z,46.65
2022-08-28T04:52:13.401Z,46.93
2022-08-28T04:54:44.035Z,47.95
2022-08-28T04:57:14.601Z,48.16
2022-08-28T04:59:46.403Z,48.55
2022-08-28T05:02:17.044Z,47.49
2022-08-28T05:04:47.227Z,48.34
2022-08-28T05:07:17.219Z,47.82
2022-08-28T05:10:02.418Z,46.95
2022-08-28T05:12:59.971Z,48.31
2022-08-28T05:15:30.439Z,48.99
2022-08-28T05:18:00.816Z,49.12
2022-08-28T05:20:30.828Z,48.91
2022-08-28T05:23:00.739Z,48.74
2022-08-28T05:25:30.727Z,49.02
2022-08-28T05:28:00.673Z,47.63
2022-08-28T05:30:30.638Z,47.91
2022-08-28T05:33:02.010Z,49.20
2022-08-28T05:35:35.714Z,48.00
2022-08-28T05:38:06.930Z,49.14
2022-08-28T05:40:42.347Z,49.28
2022-08-28T05:43:14.015Z,49.73
2022-08-28T05:46:01.397Z,49.15
2022-08-28T05:48:33.682Z,51.34
2022-08-28T05:51:11.127Z,50.99
2022-08-28T05:53:43.215Z,50.43
2022-08-28T05:56:16.355Z,49.93
2022-08-28T05:58:47.093Z,51.47
2022-08-28T06:01:23.691Z,52.07
2022-08-28T06:03:57.172Z,51.81
2022-08-28T06:06:30.565Z,50.82
2022-08-28T06:09:03.778Z,51.46
2022-08-28T06:11:34.793Z,50.01
2022-08-28T06:14:10.852Z,49.50
2022-08-28T06:16:43.576Z,49.09
2022-08-28T06:19:14.897Z,50.07
2022-08-28T06:21:45.414Z,50.48
2022-08-28T06:24:15.887Z,51.14
2022-08-28T06:26:47.227Z,49.71
2022-08-28T06:29:46.031Z,49.66
2022-08-28T06:32:36.591Z,51.24
2022-08-28T06:35:24.883Z,50.66
2022-08-28T06:37:56.090Z,50.28
2022-08-28T06:41:08.317Z,49.04
2022-08-28T06:44:07.605Z,49.36
2022-08-28T06:46:38.531Z,50.19
2022-08-28T06:49:10.665Z,50.10
2022-08-28T06:51:42.350Z,50.58
2022-08-28T06:54:13.355Z,50.20
2022-08-28T06:56:44.001Z,50.28
2022-08-28T06:59:14.218Z,50.90
2022-08-28T07:01:44.285Z,51.05
2022-08-28T07:04:18.114Z,50.39
2022-08-28T07:06:54.228Z,50.08
2022-08-28T07:09:25.692Z,51.18
2022-08-28T07:11:56.125Z,51.35
2022-08-28T07:14:27.647Z,51.74
2022-08-28T07:16:58.849Z,51.53
2022-08-28T07:19:29.407Z,52.01
2022-08-28T07:21:59.415Z,51.61
2022-08-28T07:24:31.026Z,51.24
2022-08-28T07:27:01.138Z,51.34
2022-08-28T07:29:31.184Z,52.75
2022-08-28T07:32:01.806Z,51.79
2022-08-28T07:34:32.218Z,52.98
2022-08-28T07:37:05.524Z,55.79
2022-08-28T07:39:36.379Z,55.02
2022-08-28T07:42:06.590Z,54.53
2022-08-28T07:44:51.709Z,53.16
2022-08-28T07:47:21.828Z,53.25
2022-08-28T07:49:53.744Z,53.56
2022-08-28T07:52:23.891Z,54.50
2022-08-28T07:54:53.856Z,54.37
2022-08-28T07:57:24.226Z,53.02
2022-08-28T07:59:54.488Z,55.06
2022-08-28T08:02:24.539Z,55.87
2022-08-28T08:04:55.105Z,56.21
2022-08-28T08:07:25.456Z,56.84
2022-08-28T08:09:55.414Z,54.53
2022-08-28T08:12:29.453Z,57.82
2022-08-28T08:14:59.706Z,54.35
2022-08-28T08:17:30.260Z,54.39
2022-08-28T08:20:00.261Z,55.56
2022-08-28T08:22:31.316Z,55.93
2022-08-28T08:25:01.984Z,57.94
2022-08-28T08:27:32.542Z,55.66
2022-08-28T08:30:02.545Z,55.44
2022-08-28T08:32:33.004Z,55.04
2022-08-28T08:35:03.079Z,55.28
2022-08-28T08:37:33.099Z,55.84
2022-08-28T08:40:05.502Z,55.05
2022-08-28T08:42:39.917Z,55.88
2022-08-28T08:45:17.009Z,54.97
2022-08-28T08:47:53.794Z,54.56
2022-08-28T08:50:33.840Z,55.33
2022-08-28T08:53:29.703Z,54.87
2022-08-28T08:56:01.338Z,55.57
2022-08-28T08:58:39.746Z,56.92
2022-08-28T09:01:28.134Z,55.79
2022-08-28T09:04:35.874Z,54.45
2022-08-28T09:07:40.329Z,54.23
2022-08-28T09:10:12.731Z,58.34
2022-08-28T09:12:55.633Z,56.24
2022-08-28T09:15:40.700Z,54.84
2022-08-28T09:18:33.381Z,56.10
2022-08-28T09:21:04.148Z,56.33
2022-08-28T09:23:34.813Z,56.04
2022-08-28T09:26:13.701Z,56.23
2022-08-28T09:28:51.959Z,55.69
2022-08-28T09:31:40.439Z,58.14
2022-08-28T09:34:28.357Z,55.77
2022-08-28T09:37:00.917Z,56.59
2022-08-28T09:39:33.512Z,56.57
2022-08-28T09:42:42.953Z,56.04
2022-08-28T09:45:22.386Z,56.27
2022-08-28T09:48:01.543Z,57.18
2022-08-28T09:50:36.710Z,56.03
2022-08-28T09:53:17.883Z,57.18
2022-08-28T09:56:24.768Z,55.86
2022-08-28T09:59:03.985Z,56.37
2022-08-28T10:02:00.276Z,56.88
2022-08-28T10:05:00.465Z,56.65
2022-08-28T10:07:39.526Z,58.02
2022-08-28T10:10:47.759Z,57.26
2022-08-28T10:13:33.155Z,58.71
2022-08-28T10:16:33.392Z,57.03
2022-08-28T10:19:35.422Z,55.73
2022-08-28T10:22:28.627Z,57.46
2022-08-28T10:25:26.162Z,57.69
2022-08-28T10:28:00.406Z,57.38
2022-08-28T10:30:38.073Z,57.88
2022-08-28T10:33:22.436Z,58.16
2022-08-28T10:36:09.211Z,57.71
2022-08-28T10:39:21.527Z,56.82
2022-08-28T10:41:59.457Z,58.55
2022-08-28T10:44:55.814Z,58.29
2022-08-28T10:47:30.068Z,58.53
2022-08-28T10:50:09.303Z,57.47
2022-08-28T10:52:51.492Z,57.85
2022-08-28T10:55:21.542Z,59.97
2022-08-28T10:58:01.195Z,57.92
2022-08-28T11:00:32.389Z,58.97
2022-08-28T11:03:32.884Z,57.27
2022-08-28T11:06:18.179Z,59.44
2022-08-28T11:08:59.316Z,57.33
2022-08-28T11:11:50.861Z,59.58
2022-08-28T11:14:47.782Z,59.69
2022-08-28T11:17:31.610Z,58.25
2022-08-28T11:20:26.272Z,58.13
2022-08-28T11:23:08.754Z,57.93
2022-08-28T11:25:58.776Z,58.96
2022-08-28T11:28:38.371Z,59.79
2022-08-28T11:31:08.904Z,58.04
2022-08-28T11:33:39.480Z,59.90
2022-08-28T11:36:22.937Z,59.84
2022-08-28T11:38:56.762Z,58.37
2022-08-28T11:41:30.813Z,58.96
2022-08-28T11:44:16.265Z,57.88
2022-08-28T11:46:49.605Z,58.89
2022-08-28T11:49:28.769Z,58.28
2022-08-28T11:52:04.553Z,59.04
2022-08-28T11:54:47.867Z,59.99
2022-08-28T11:57:48.900Z,59.29
2022-08-28T12:00:48.737Z,60.61
2022-08-28T12:03:42.161Z,58.52
2022-08-28T12:06:14.582Z,60.29
2022-08-28T12:08:48.230Z,64.78
2022-08-28T12:11:42.937Z,59.52
2022-08-28T12:14:38.744Z,58.62
2022-08-28T12:21:00.213Z,58.51
2022-08-28T12:26:40.080Z,58.93
2022-08-28T12:29:31.640Z,59.72
2022-08-28T12:32:26.207Z,60.14
2022-08-28T12:35:02.997Z,59.76
2022-08-28T12:37:52.776Z,59.83
2022-08-28T12:40:35.251Z,59.37
2022-08-28T12:43:11.500Z,59.80
2022-08-28T12:46:19.379Z,58.76
2022-08-28T12:49:42.607Z,59.26
2022-08-28T12:52:24.614Z,59.21
2022-08-28T12:55:00.121Z,60.11
2022-08-28T12:57:30.198Z,59.96
2022-08-28T13:00:10.975Z,58.92
2022-08-28T13:02:46.509Z,59.95
2022-08-28T13:05:33.993Z,59.06
2022-08-28T13:08:09.673Z,60.04
2022-08-28T13:10:44.063Z,59.86
2022-08-28T13:13:36.100Z,59.29
2022-08-28T13:16:12.242Z,59.55
2022-08-28T13:18:55.370Z,60.48
2022-08-28T13:21:34.453Z,58.85
2022-08-28T13:24:27.417Z,59.74
2022-08-28T13:27:18.665Z,59.46
2022-08-28T13:29:57.302Z,59.92
2022-08-28T13:32:33.996Z,60.48
2022-08-28T13:35:31.916Z,59.26
2022-08-28T13:38:10.065Z,60.58
2022-08-28T13:40:57.470Z,62.97
2022-08-28T13:43:57.543Z,60.46
2022-08-28T13:46:51.953Z,60.20
2022-08-28T13:52:12.076Z,60.63
2022-08-28T13:54:45.339Z,61.33
2022-08-28T13:57:16.563Z,61.02
2022-08-28T13:59:46.816Z,61.77
2022-08-28T14:02:36.105Z,61.00
2022-08-28T14:05:07.562Z,61.29
2022-08-28T14:07:40.803Z,61.62
2022-08-28T14:10:15.414Z,60.98
2022-08-28T14:12:48.337Z,62.81
2022-08-28T14:15:19.565Z,60.93
2022-08-28T14:17:49.554Z,63.10
2022-08-28T14:20:19.759Z,63.48
2022-08-28T14:22:49.969Z,60.87
2022-08-28T14:25:19.434Z,60.89
2022-08-28T14:27:49.978Z,61.01
2022-08-28T14:30:20.816Z,61.37
2022-08-28T14:32:50.887Z,60.51
2022-08-28T14:35:21.316Z,60.67
2022-08-28T14:37:51.556Z,60.54
2022-08-28T14:40:22.249Z,61.36
2022-08-28T14:42:53.469Z,61.21
2022-08-28T14:45:23.562Z,60.74
2022-08-28T14:47:54.235Z,60.52
2022-08-28T14:50:24.559Z,61.42
2022-08-28T14:52:57.261Z,61.45
2022-08-28T14:55:27.828Z,61.49
2022-08-28T14:57:57.937Z,60.54
2022-08-28T15:00:27.986Z,61.34
2022-08-28T15:03:10.134Z,61.13
2022-08-28T15:05:40.518Z,61.07
2022-08-28T15:08:13.509Z,60.85
2022-08-28T15:10:45.313Z,60.87
2022-08-28T15:13:15.560Z,60.65
2022-08-28T15:15:46.344Z,60.84
2022-08-28T15:18:16.850Z,60.93
2022-08-28T15:20:48.574Z,59.89
2022-08-28T15:23:18.793Z,61.15
2022-08-28T15:25:48.931Z,60.89
2022-08-28T15:28:20.138Z,60.62
2022-08-28T15:30:53.596Z,60.95
2022-08-28T15:33:23.670Z,61.13
2022-08-28T15:35:57.445Z,60.88
2022-08-28T15:38:28.210Z,61.47
2022-08-28T15:41:16.425Z,61.50
2022-08-28T15:43:47.646Z,61.31
2022-08-28T15:46:18.089Z,60.94
2022-08-28T15:48:49.612Z,61.17
2022-08-28T15:51:23.897Z,61.22
2022-08-28T15:53:56.351Z,61.38
2022-08-28T15:56:26.649Z,60.89
2022-08-28T15:58:57.273Z,60.84
2022-08-28T16:01:27.485Z,60.89
2022-08-28T16:03:57.641Z,61.64
2022-08-28T16:06:30.302Z,61.83
2022-08-28T16:09:01.054Z,60.95
2022-08-28T16:11:32.177Z,60.89
2022-08-28T16:14:05.972Z,61.67
2022-08-28T16:16:37.812Z,61.20
2022-08-28T16:19:10.669Z,61.25
2022-08-28T16:21:42.030Z,61.60
2022-08-28T16:24:12.404Z,60.73
2022-08-28T16:26:42.042Z,61.24
2022-08-28T16:29:12.090Z,61.05
2022-08-28T16:31:42.161Z,61.29
2022-08-28T16:34:12.322Z,62.17
2022-08-28T16:36:42.491Z,63.05
2022-08-28T16:39:12.898Z,63.10
2022-08-28T16:41:44.484Z,63.99
2022-08-28T16:44:14.981Z,61.08
2022-08-28T16:46:46.139Z,61.62
2022-08-28T16:49:17.300Z,61.68
2022-08-28T16:51:47.931Z,61.33
2022-08-28T16:54:19.576Z,61.68
2022-08-28T16:56:50.347Z,61.44
2022-08-28T16:59:23.433Z,62.11
2022-08-28T17:01:54.539Z,59.91
2022-08-28T17:04:25.063Z,61.92
2022-08-28T17:06:56.119Z,65.64
2022-08-28T17:09:27.706Z,61.31
2022-08-28T17:11:58.719Z,61.43
2022-08-28T17:14:31.726Z,61.82
2022-08-28T17:17:02.039Z,61.86
2022-08-28T17:19:32.880Z,61.82
2022-08-28T17:22:22.391Z,60.06
2022-08-28T17:25:00.018Z,61.64
2022-08-28T17:27:33.419Z,61.11
2022-08-28T17:30:06.306Z,61.61
2022-08-28T17:32:36.683Z,61.94
2022-08-28T17:35:07.544Z,62.20
2022-08-28T17:37:39.851Z,61.91
2022-08-28T17:40:17.083Z,61.69
2022-08-28T17:42:49.415Z,61.77
2022-08-28T17:45:19.279Z,61.41
2022-08-28T17:47:49.661Z,61.83
2022-08-28T17:50:19.632Z,61.94
2022-08-28T17:52:49.733Z,61.48
2022-08-28T17:55:22.328Z,61.29
2022-08-28T17:57:53.630Z,61.94
2022-08-28T18:00:24.016Z,61.51
2022-08-28T18:02:55.800Z,61.70
2022-08-28T18:05:26.238Z,61.89
2022-08-28T18:07:56.900Z,61.49
2022-08-28T18:10:27.654Z,61.60
2022-08-28T18:12:58.036Z,61.13
2022-08-28T18:15:30.085Z,61.74
2022-08-28T18:18:00.588Z,62.32
2022-08-28T18:20:30.632Z,61.97
2022-08-28T18:23:00.847Z,61.64
2022-08-28T18:25:43.372Z,60.77
2022-08-28T18:28:24.245Z,61.11
2022-08-28T18:30:55.302Z,61.19
2022-08-28T18:33:27.091Z,62.19
2022-08-28T18:35:57.422Z,61.51
2022-08-28T18:38:30.142Z,62.00
2022-08-28T18:41:01.080Z,61.13
2022-08-28T18:43:31.837Z,61.56
2022-08-28T18:46:03.670Z,61.54
2022-08-28T18:48:34.460Z,61.76
2022-08-28T18:51:09.016Z,61.50
2022-08-28T18:53:42.261Z,62.06
2022-08-28T18:56:13.842Z,62.20
2022-08-28T18:58:44.629Z,62.37
2022-08-28T19:01:14.715Z,61.54
2022-08-28T19:03:44.809Z,64.14
2022-08-28T19:06:16.411Z,64.83
2022-08-28T19:08:47.872Z,62.46
2022-08-28T19:11:19.128Z,62.39
2022-08-28T19:13:49.873Z,62.25
2022-08-28T19:16:21.760Z,62.19
2022-08-28T19:18:53.988Z,62.23
2022-08-28T19:21:25.460Z,61.63
2022-08-28T19:23:56.718Z,62.09
2022-08-28T19:26:28.934Z,62.19
2022-08-28T19:29:00.069Z,62.87
2022-08-28T19:31:31.001Z,61.96
2022-08-28T19:34:02.670Z,63.79
2022-08-28T19:36:32.705Z,63.03
2022-08-28T19:39:03.029Z,62.58
2022-08-28T19:41:34.269Z,62.22
2022-08-28T19:44:05.818Z,62.75
2022-08-28T19:46:38.503Z,62.69
2022-08-28T19:49:09.267Z,62.08
2022-08-28T19:51:40.711Z,63.00
2022-08-28T19:54:15.652Z,62.43
2022-08-28T19:56:46.273Z,62.97
2022-08-28T19:59:16.556Z,62.28
2022-08-28T20:01:47.703Z,62.57
2022-08-28T20:04:19.064Z,62.55
2022-08-28T20:06:49.933Z,62.09
2022-08-28T20:09:20.245Z,62.28
2022-08-28T20:11:51.046Z,62.42
2022-08-28T20:14:23.038Z,62.19
2022-08-28T20:16:55.617Z,62.43
2022-08-28T20:19:25.785Z,62.43
2022-08-28T20:21:55.860Z,62.30
2022-08-28T20:24:26.427Z,62.55
2022-08-28T20:26:56.447Z,62.24
2022-08-28T20:29:27.461Z,62.45
2022-08-28T20:31:57.649Z,61.89
2022-08-28T20:34:27.765Z,62.58
2022-08-28T20:36:57.717Z,62.75
2022-08-28T20:39:27.633Z,62.29
2022-08-28T20:41:58.033Z,62.93
2022-08-28T20:44:27.981Z,64.49
2022-08-28T20:46:57.884Z,67.48
2022-08-28T20:49:27.885Z,63.13
2022-08-28T20:51:58.914Z,62.91
2022-08-28T20:54:35.532Z,62.72
2022-08-28T20:57:09.863Z,65.50
2022-08-28T20:59:42.544Z,62.96
2022-08-28T21:02:21.708Z,63.29
2022-08-28T21:04:52.269Z,62.25
2022-08-28T21:07:24.451Z,62.64
2022-08-28T21:10:06.262Z,63.13
2022-08-28T21:12:40.219Z,63.47
2022-08-28T21:15:13.844Z,62.80
2022-08-28T21:17:44.089Z,62.64
2022-08-28T21:20:16.085Z,62.80
2022-08-28T21:22:46.188Z,62.49
2022-08-28T21:25:17.303Z,63.21
2022-08-28T21:27:48.183Z,63.23
2022-08-28T21:30:23.191Z,62.84
2022-08-28T21:32:55.462Z,62.87
2022-08-28T21:35:26.024Z,62.84
2022-08-28T21:37:55.958Z,62.65
2022-08-28T21:40:25.992Z,63.03
2022-08-28T21:42:55.961Z,62.93
2022-08-28T21:45:26.193Z,63.41
2022-08-28T21:47:56.304Z,62.98
2022-08-28T21:50:30.340Z,63.87
2022-08-28T21:53:01.944Z,63.08
2022-08-28T21:55:32.274Z,63.43
2022-08-28T21:58:02.238Z,63.91
2022-08-28T22:00:32.726Z,63.72
2022-08-28T22:03:02.837Z,62.56
2022-08-28T22:05:32.222Z,62.42
2022-08-28T22:08:02.234Z,63.00
2022-08-28T22:10:33.557Z,63.27
2022-08-28T22:13:05.778Z,62.93
2022-08-28T22:15:36.918Z,63.19
2022-08-28T22:18:08.454Z,62.51
2022-08-28T22:21:01.477Z,63.60
2022-08-28T22:23:35.876Z,62.82
2022-08-28T22:26:14.435Z,62.43
2022-08-28T22:28:45.847Z,65.07
2022-08-28T22:31:16.381Z,63.80
2022-08-28T22:33:48.778Z,63.54
2022-08-28T22:36:18.929Z,63.55
2022-08-28T22:38:53.449Z,63.22
2022-08-28T22:41:24.337Z,64.04
2022-08-28T22:43:56.823Z,64.35
2022-08-28T22:46:27.029Z,63.22
2022-08-28T22:48:58.058Z,63.42
2022-08-28T22:51:28.272Z,62.96
2022-08-28T22:53:58.633Z,65.52
2022-08-28T22:56:28.709Z,63.02
2022-08-28T22:58:58.628Z,62.88
2022-08-28T23:01:29.191Z,62.73
2022-08-28T23:04:02.519Z,64.05
2022-08-28T23:06:33.739Z,64.67
2022-08-28T23:09:04.217Z,63.49
2022-08-28T23:11:34.791Z,63.77
2022-08-28T23:14:06.217Z,63.37
2022-08-28T23:16:37.337Z,62.88
2022-08-28T23:19:13.547Z,64.27
2022-08-28T23:21:48.317Z,62.41
2022-08-28T23:24:23.030Z,62.62
2022-08-28T23:26:53.370Z,62.42
2022-08-28T23:29:23.588Z,62.06
2022-08-28T23:31:53.714Z,62.98
2022-08-28T23:34:25.071Z,62.29
2022-08-28T23:36:55.707Z,62.16
2022-08-28T23:39:29.061Z,63.29
2022-08-28T23:42:00.911Z,61.80
2022-08-28T23:44:32.349Z,61.87
2022-08-28T23:47:02.743Z,61.83
2022-08-28T23:49:42.642Z,61.67
2022-08-28T23:52:13.605Z,61.68
2022-08-28T23:54:43.752Z,61.59
2022-08-28T23:57:15.597Z,61.48
2022-08-28T23:59:45.868Z,61.62
